createdAt,value
2018-12-30T00:01:48.340Z,102248.12
2018-12-30T00:04:19.226Z,102251.56
2018-12-30T00:06:49.785Z,102256.73
2018-12-30T00:09:20.648Z,102265.39
2018-12-30T00:11:51.128Z,102271.88
2018-12-30T00:14:21.794Z,102277.05
2018-12-30T00:16:52.433Z,102273.13
2018-12-30T00:19:23.065Z,102274.86
2018-12-30T00:21:53.324Z,102278.32
2018-12-30T00:24:23.893Z,102278.32
2018-12-30T00:26:54.310Z,102289.98
2018-12-30T00:29:24.600Z,102286.94
2018-12-30T00:31:55.238Z,102284.31
2018-12-30T00:34:25.801Z,102280.91
2018-12-30T00:36:56.418Z,102293.84
2018-12-30T00:39:26.719Z,102296.85
2018-12-30T00:41:57.130Z,102320.63
2018-12-30T00:44:27.345Z,102318.04
2018-12-30T00:46:57.809Z,102313.31
2018-12-30T00:49:28.689Z,102326.69
2018-12-30T00:51:59.349Z,102325.39
2018-12-30T00:54:29.878Z,102325.78
2018-12-30T00:57:00.517Z,102331.38
2018-12-30T00:59:30.786Z,102341.37
2018-12-30T01:02:01.692Z,102336.15
2018-12-30T01:04:31.976Z,102346.09
2018-12-30T01:07:02.348Z,102347.39
2018-12-30T01:09:32.642Z,102360.38
2018-12-30T01:12:02.916Z,102365.53
2018-12-30T01:14:33.485Z,102368.13
2018-12-30T01:17:03.882Z,102374.14
2018-12-30T01:19:34.687Z,102378.45
2018-12-30T01:22:05.926Z,102378.87
2018-12-30T01:24:36.326Z,102363.78
2018-12-30T01:27:06.890Z,102367.20
2018-12-30T01:29:37.338Z,102368.13
2018-12-30T01:32:07.803Z,102385.77
2018-12-30T01:34:38.025Z,102379.78
2018-12-30T01:37:08.409Z,102394.00
2018-12-30T01:39:38.794Z,102397.05
2018-12-30T01:42:09.170Z,102409.97
2018-12-30T01:44:39.715Z,102401.73
2018-12-30T01:47:10.200Z,102399.14
2018-12-30T01:49:40.745Z,102404.70
2018-12-30T01:52:11.032Z,102408.12
2018-12-30T01:54:41.878Z,102406.83
2018-12-30T01:57:12.332Z,102407.25
2018-12-30T01:59:42.766Z,102410.59
2018-12-30T02:02:13.535Z,102415.36
2018-12-30T02:04:44.852Z,102423.55
2018-12-30T02:07:15.251Z,102431.31
2018-12-30T02:09:45.571Z,102427.89
2018-12-30T02:12:15.865Z,102431.33
2018-12-30T02:14:46.137Z,102433.08
2018-12-30T02:17:16.593Z,102435.20
2018-12-30T02:19:47.207Z,102430.03
2018-12-30T02:22:17.646Z,102454.59
2018-12-30T02:24:48.416Z,102459.83
2018-12-30T02:27:18.901Z,102455.05
2018-12-30T02:29:49.335Z,102446.91
2018-12-30T02:32:19.642Z,102457.31
2018-12-30T02:34:50.029Z,102463.30
2018-12-30T02:37:20.512Z,102449.08
2018-12-30T02:39:50.974Z,102464.17
2018-12-30T02:42:21.422Z,102470.72
2018-12-30T02:44:52.173Z,102470.23
2018-12-30T02:47:22.695Z,102460.36
2018-12-30T02:49:52.991Z,102452.52
2018-12-30T02:52:23.934Z,102457.27
2018-12-30T02:54:54.301Z,102449.92
2018-12-30T02:57:24.652Z,102444.28
2018-12-30T02:59:55.021Z,102452.92
2018-12-30T03:02:25.413Z,102463.75
2018-12-30T03:04:56.181Z,102479.30
2018-12-30T03:07:26.542Z,102479.71
2018-12-30T03:09:56.945Z,102475.91
2018-12-30T03:12:27.235Z,102474.52
2018-12-30T03:14:57.657Z,102481.00
2018-12-30T03:17:28.049Z,102486.14
2018-12-30T03:19:58.763Z,102465.88
2018-12-30T03:22:29.105Z,102467.22
2018-12-30T03:24:59.534Z,102465.05
2018-12-30T03:27:29.811Z,102466.76
2018-12-30T03:30:00.092Z,102461.12
2018-12-30T03:32:30.497Z,102444.27
2018-12-30T03:35:01.178Z,102444.73
2018-12-30T03:37:31.622Z,102463.70
2018-12-30T03:40:02.139Z,102477.11
2018-12-30T03:42:32.582Z,102481.92
2018-12-30T03:45:03.487Z,102480.59
2018-12-30T03:47:33.973Z,102484.09
2018-12-30T03:50:04.506Z,102491.88
2018-12-30T03:52:34.860Z,102482.39
2018-12-30T03:55:05.390Z,102471.14
2018-12-30T03:57:35.754Z,102492.33
2018-12-30T04:00:07.102Z,102487.56
2018-12-30T04:02:37.565Z,102500.15
2018-12-30T04:05:07.998Z,102498.81
2018-12-30T04:07:38.440Z,102500.95
2018-12-30T04:10:09.121Z,102503.11
2018-12-30T04:12:39.469Z,102494.47
2018-12-30T04:15:09.845Z,102496.55
2018-12-30T04:17:40.130Z,102500.43
2018-12-30T04:20:10.473Z,102490.44
2018-12-30T04:22:40.737Z,102508.20
2018-12-30T04:25:11.163Z,102495.16
2018-12-30T04:27:41.401Z,102495.16
2018-12-30T04:30:12.324Z,102483.97
2018-12-30T04:32:42.723Z,102489.97
2018-12-30T04:35:13.116Z,102505.05
2018-12-30T04:37:43.615Z,102502.50
2018-12-30T04:40:14.023Z,102509.35
2018-12-30T04:42:44.559Z,102521.89
2018-12-30T04:45:14.980Z,102521.42
2018-12-30T04:47:45.389Z,102523.59
2018-12-30T04:50:15.733Z,102532.19
2018-12-30T04:52:46.157Z,102520.08
2018-12-30T04:55:16.539Z,102526.59
2018-12-30T04:57:46.901Z,102530.44
2018-12-30T05:00:17.509Z,102536.44
2018-12-30T05:02:48.099Z,102529.91
2018-12-30T05:05:18.468Z,102529.13
2018-12-30T05:07:50.185Z,102518.72
2018-12-30T05:10:20.587Z,102537.31
2018-12-30T05:12:50.882Z,102536.84
2018-12-30T05:15:21.417Z,102534.73
2018-12-30T05:17:54.733Z,102543.79
2018-12-30T05:20:25.015Z,102546.42
2018-12-30T05:22:55.550Z,102552.91
2018-12-30T05:25:26.214Z,102560.68
2018-12-30T05:27:56.551Z,102556.02
2018-12-30T05:30:26.847Z,102543.91
2018-12-30T05:32:57.146Z,102521.47
2018-12-30T05:35:27.786Z,102531.78
2018-12-30T05:37:58.354Z,102540.44
2018-12-30T05:40:28.844Z,102536.13
2018-12-30T05:42:59.340Z,102532.66
2018-12-30T05:45:29.719Z,102542.97
2018-12-30T05:47:59.918Z,102550.38
2018-12-30T05:50:30.832Z,102536.08
2018-12-30T05:53:01.372Z,102555.08
2018-12-30T05:55:31.810Z,102563.74
2018-12-30T05:58:02.099Z,102563.69
2018-12-30T06:00:32.571Z,102560.21
2018-12-30T06:03:03.069Z,102532.50
2018-12-30T06:05:33.694Z,102555.80
2018-12-30T06:08:04.062Z,102564.86
2018-12-30T06:10:35.065Z,102570.91
2018-12-30T06:13:05.666Z,102566.55
2018-12-30T06:15:36.090Z,102569.63
2018-12-30T06:18:06.459Z,102579.05
2018-12-30T06:20:36.878Z,102569.27
2018-12-30T06:23:07.328Z,102586.05
2018-12-30T06:25:37.752Z,102585.64
2018-12-30T06:28:08.108Z,102592.11
2018-12-30T06:30:38.433Z,102586.47
2018-12-30T06:33:08.701Z,102599.41
2018-12-30T06:35:39.108Z,102596.87
2018-12-30T06:38:09.850Z,102611.13
2018-12-30T06:40:40.167Z,102615.84
2018-12-30T06:43:10.537Z,102619.30
2018-12-30T06:45:40.855Z,102618.43
2018-12-30T06:48:11.223Z,102621.01
2018-12-30T06:50:41.527Z,102618.84
2018-12-30T06:53:11.835Z,102631.77
2018-12-30T06:55:42.210Z,102636.06
2018-12-30T06:58:13.028Z,102632.18
2018-12-30T07:00:43.626Z,102650.31
2018-12-30T07:03:14.768Z,102652.02
2018-12-30T07:05:45.128Z,102655.48
2018-12-30T07:08:15.474Z,102649.83
2018-12-30T07:10:45.753Z,102657.62
2018-12-30T07:13:16.123Z,102662.31
2018-12-30T07:15:46.787Z,102663.20
2018-12-30T07:18:17.503Z,102668.73
2018-12-30T07:20:47.819Z,102667.02
2018-12-30T07:23:18.129Z,102665.72
2018-12-30T07:25:48.420Z,102659.59
2018-12-30T07:28:18.712Z,102670.83
2018-12-30T07:30:49.097Z,102659.17
2018-12-30T07:33:19.640Z,102662.56
2018-12-30T07:35:50.266Z,102658.27
2018-12-30T07:38:20.729Z,102666.45
2018-12-30T07:40:51.414Z,102664.27
2018-12-30T07:43:21.915Z,102661.69
2018-12-30T07:45:52.224Z,102669.95
2018-12-30T07:48:22.637Z,102651.81
2018-12-30T07:50:52.946Z,102660.94
2018-12-30T07:53:23.230Z,102658.30
2018-12-30T07:55:53.515Z,102656.17
2018-12-30T07:58:24.043Z,102662.70
2018-12-30T08:00:54.458Z,102673.06
2018-12-30T08:03:24.756Z,102664.41
2018-12-30T08:05:55.407Z,102666.14
2018-12-30T08:08:25.798Z,102675.31
2018-12-30T08:10:56.249Z,102674.86
2018-12-30T08:13:26.630Z,102686.10
2018-12-30T08:15:57.011Z,102684.81
2018-12-30T08:18:27.539Z,102685.27
2018-12-30T08:20:57.855Z,102682.70
2018-12-30T08:23:28.109Z,102685.83
2018-12-30T08:25:58.719Z,102685.88
2018-12-30T08:28:29.204Z,102680.23
2018-12-30T08:30:59.654Z,102681.12
2018-12-30T08:33:30.213Z,102682.47
2018-12-30T08:36:00.534Z,102686.36
2018-12-30T08:38:31.011Z,102692.44
2018-12-30T08:41:02.220Z,102683.01
2018-12-30T08:43:33.010Z,102693.38
2018-12-30T08:46:03.431Z,102691.69
2018-12-30T08:48:33.791Z,102695.74
2018-12-30T08:51:04.417Z,102681.13
2018-12-30T08:53:35.030Z,102686.79
2018-12-30T08:56:05.407Z,102695.15
2018-12-30T08:58:35.699Z,102693.81
2018-12-30T09:01:06.587Z,102700.87
2018-12-30T09:03:37.232Z,102708.64
2018-12-30T09:06:07.845Z,102704.63
2018-12-30T09:08:38.190Z,102699.48
2018-12-30T09:11:08.636Z,102705.94
2018-12-30T09:13:38.930Z,102704.23
2018-12-30T09:16:09.367Z,102709.50
2018-12-30T09:18:39.749Z,102716.17
2018-12-30T09:21:10.379Z,102703.91
2018-12-30T09:23:40.833Z,102689.66
2018-12-30T09:26:11.446Z,102690.53
2018-12-30T09:28:41.796Z,102683.19
2018-12-30T09:31:12.512Z,102681.57
2018-12-30T09:33:42.862Z,102684.10
2018-12-30T09:36:13.233Z,102687.97
2018-12-30T09:38:43.536Z,102699.27
2018-12-30T09:41:14.039Z,102711.52
2018-12-30T09:43:44.459Z,102732.59
2018-12-30T09:46:14.735Z,102728.36
2018-12-30T09:48:45.121Z,102710.55
2018-12-30T09:51:15.413Z,102723.03
2018-12-30T09:53:45.882Z,102727.36
2018-12-30T09:56:16.295Z,102729.05
2018-12-30T09:58:46.800Z,102732.47
2018-12-30T10:01:17.202Z,102720.65
2018-12-30T10:03:47.818Z,102730.29
2018-12-30T10:06:18.304Z,102741.98
2018-12-30T10:08:48.618Z,102748.06
2018-12-30T10:11:18.925Z,102744.59
2018-12-30T10:13:49.256Z,102753.27
2018-12-30T10:16:19.797Z,102753.69
2018-12-30T10:18:50.237Z,102745.83
2018-12-30T10:21:20.479Z,102760.58
2018-12-30T10:23:53.032Z,102763.49
2018-12-30T10:26:23.319Z,102766.02
2018-12-30T10:28:54.056Z,102776.29
2018-12-30T10:31:24.658Z,102767.62
2018-12-30T10:33:55.026Z,102766.32
2018-12-30T10:36:25.407Z,102764.60
2018-12-30T10:38:55.844Z,102765.94
2018-12-30T10:41:26.623Z,102770.68
2018-12-30T10:43:57.220Z,102764.19
2018-12-30T10:46:27.763Z,102765.03
2018-12-30T10:48:58.551Z,102766.28
2018-12-30T10:51:29.286Z,102768.33
2018-12-30T10:54:00.725Z,102759.24
2018-12-30T10:56:31.130Z,102748.89
2018-12-30T10:59:01.572Z,102736.20
2018-12-30T11:01:31.966Z,102731.97
2018-12-30T11:04:02.599Z,102727.28
2018-12-30T11:06:32.945Z,102729.88
2018-12-30T11:09:04.094Z,102737.70
2018-12-30T11:11:34.492Z,102729.98
2018-12-30T11:14:04.952Z,102723.04
2018-12-30T11:16:35.390Z,102717.84
2018-12-30T11:19:05.837Z,102720.41
2018-12-30T11:21:48.915Z,102722.08
2018-12-30T11:24:20.945Z,102720.36
2018-12-30T11:26:51.630Z,102719.82
2018-12-30T11:29:22.058Z,102716.89
2018-12-30T11:31:52.775Z,102714.29
2018-12-30T11:34:23.178Z,102713.03
2018-12-30T11:36:54.499Z,102708.63
2018-12-30T11:39:24.879Z,102699.51
2018-12-30T11:41:56.257Z,102702.06
2018-12-30T11:44:26.789Z,102704.66
2018-12-30T11:46:57.517Z,102699.85
2018-12-30T11:49:27.902Z,102695.91
2018-12-30T11:51:58.524Z,102698.47
2018-12-30T11:54:55.036Z,102700.69
2018-12-30T11:57:25.460Z,102700.23
2018-12-30T11:59:55.990Z,102692.48
2018-12-30T12:02:26.419Z,102689.42
2018-12-30T12:04:56.875Z,102691.14
2018-12-30T12:07:27.196Z,102689.84
2018-12-30T12:09:57.591Z,102701.53
2018-12-30T12:12:28.052Z,102694.16
2018-12-30T12:14:58.862Z,102695.45
2018-12-30T12:17:29.550Z,102696.29
2018-12-30T12:20:00.244Z,102691.56
2018-12-30T12:22:31.023Z,102688.08
2018-12-30T12:25:02.843Z,102692.06
2018-12-30T12:27:33.670Z,102687.78
2018-12-30T12:30:05.485Z,102678.23
2018-12-30T12:32:35.971Z,102673.01
2018-12-30T12:35:07.343Z,102668.69
2018-12-30T12:37:37.689Z,102660.09
2018-12-30T12:40:08.371Z,102666.55
2018-12-30T12:42:38.832Z,102669.19
2018-12-30T12:45:09.334Z,102666.55
2018-12-30T12:47:39.691Z,102671.36
2018-12-30T12:50:10.190Z,102668.38
2018-12-30T12:52:40.485Z,102677.96
2018-12-30T12:55:11.213Z,102674.10
2018-12-30T12:57:41.714Z,102672.73
2018-12-30T13:00:13.643Z,102673.26
2018-12-30T13:02:44.184Z,102671.89
2018-12-30T13:05:14.641Z,102668.45
2018-12-30T13:07:45.349Z,102682.28
2018-12-30T13:10:16.127Z,102667.95
2018-12-30T13:12:46.869Z,102667.53
2018-12-30T13:15:17.651Z,102663.61
2018-12-30T13:17:51.288Z,102657.11
2018-12-30T13:20:22.040Z,102667.47
2018-12-30T13:22:52.517Z,102651.84
2018-12-30T13:25:23.295Z,102656.97
2018-12-30T13:27:54.109Z,102653.91
2018-12-30T13:30:24.687Z,102648.22
2018-12-30T13:32:55.097Z,102659.02
2018-12-30T13:35:26.309Z,102658.14
2018-12-30T13:37:56.961Z,102661.63
2018-12-30T13:40:27.476Z,102663.80
2018-12-30T13:42:58.240Z,102670.70
2018-12-30T13:45:28.895Z,102673.77
2018-12-30T13:47:59.406Z,102675.86
2018-12-30T13:50:30.152Z,102683.65
2018-12-30T13:53:00.451Z,102681.88
2018-12-30T13:55:34.042Z,102684.95
2018-12-30T13:58:04.543Z,102687.07
2018-12-30T14:00:35.037Z,102679.71
2018-12-30T14:03:05.473Z,102684.02
2018-12-30T14:05:35.865Z,102683.52
2018-12-30T14:08:06.675Z,102685.69
2018-12-30T14:10:37.087Z,102686.06
2018-12-30T14:13:07.529Z,102688.28
2018-12-30T14:15:37.997Z,102693.84
2018-12-30T14:18:08.725Z,102696.86
2018-12-30T14:20:39.361Z,102699.86
2018-12-30T14:23:10.394Z,102707.64
2018-12-30T14:25:40.875Z,102697.13
2018-12-30T14:28:11.185Z,102698.84
2018-12-30T14:30:41.823Z,102701.42
2018-12-30T14:33:12.193Z,102698.37
2018-12-30T14:35:42.648Z,102692.72
2018-12-30T14:38:13.104Z,102683.68
2018-12-30T14:40:43.532Z,102685.40
2018-12-30T14:43:13.888Z,102679.80
2018-12-30T14:45:44.512Z,102673.72
2018-12-30T14:48:15.205Z,102667.24
2018-12-30T14:50:45.862Z,102672.84
2018-12-30T14:53:19.231Z,102673.26
2018-12-30T14:55:48.365Z,102673.67
2018-12-30T14:58:18.748Z,102672.34
2018-12-30T15:00:49.456Z,102674.51
2018-12-30T15:03:19.953Z,102668.02
2018-12-30T15:05:50.354Z,102669.31
2018-12-30T15:08:20.651Z,102671.50
2018-12-30T15:10:51.022Z,102667.50
2018-12-30T15:13:21.403Z,102667.97
2018-12-30T15:15:52.180Z,102671.34
2018-12-30T15:18:22.781Z,102674.88
2018-12-30T15:20:53.337Z,102670.52
2018-12-30T15:23:23.679Z,102675.65
2018-12-30T15:25:54.049Z,102679.11
2018-12-30T15:28:24.576Z,102678.19
2018-12-30T15:30:55.045Z,102677.77
2018-12-30T15:33:25.568Z,102682.08
2018-12-30T15:35:56.035Z,102674.19
2018-12-30T15:38:26.949Z,102663.86
2018-12-30T15:40:57.453Z,102655.99
2018-12-30T15:43:28.151Z,102649.08
2018-12-30T15:45:58.655Z,102653.33
2018-12-30T15:48:29.156Z,102649.39
2018-12-30T15:50:59.448Z,102653.23
2018-12-30T15:53:29.873Z,102652.27
2018-12-30T15:56:00.666Z,102653.94
2018-12-30T15:58:31.310Z,102646.55
2018-12-30T16:01:01.741Z,102643.55
2018-12-30T16:03:32.170Z,102638.73
2018-12-30T16:06:02.623Z,102636.19
2018-12-30T16:08:33.015Z,102636.59
2018-12-30T16:11:03.435Z,102626.19
2018-12-30T16:13:33.876Z,102626.09
2018-12-30T16:16:04.609Z,102620.04
2018-12-30T16:18:35.023Z,102636.44
2018-12-30T16:21:05.685Z,102628.21
2018-12-30T16:23:36.240Z,102635.08
2018-12-30T16:26:06.751Z,102628.62
2018-12-30T16:28:37.371Z,102635.04
2018-12-30T16:31:07.889Z,102627.67
2018-12-30T16:33:38.827Z,102624.20
2018-12-30T16:36:09.604Z,102624.25
2018-12-30T16:38:40.041Z,102635.84
2018-12-30T16:41:10.424Z,102636.27
2018-12-30T16:43:40.976Z,102638.37
2018-12-30T16:46:11.713Z,102647.85
2018-12-30T16:49:30.345Z,102643.56
2018-12-30T16:51:56.643Z,102647.80
2018-12-30T16:54:27.135Z,102646.44
2018-12-30T16:56:57.492Z,102640.36
2018-12-30T16:59:27.893Z,102643.30
2018-12-30T17:01:58.375Z,102639.88
2018-12-30T17:04:28.781Z,102636.77
2018-12-30T17:06:59.540Z,102639.34
2018-12-30T17:09:29.913Z,102631.98
2018-12-30T17:12:00.480Z,102637.58
2018-12-30T17:14:31.238Z,102644.95
2018-12-30T17:17:01.989Z,102640.56
2018-12-30T17:19:32.304Z,102636.20
2018-12-30T17:22:03.075Z,102625.84
2018-12-30T17:24:33.607Z,102626.27
2018-12-30T17:27:04.155Z,102615.50
2018-12-30T17:29:34.683Z,102609.02
2018-12-30T17:32:05.163Z,102610.80
2018-12-30T17:34:35.753Z,102610.32
2018-12-30T17:37:06.234Z,102603.04
2018-12-30T17:39:36.697Z,102602.20
2018-12-30T17:42:07.167Z,102599.20
2018-12-30T17:44:37.810Z,102603.11
2018-12-30T17:47:08.740Z,102603.58
2018-12-30T17:49:39.141Z,102602.70
2018-12-30T17:52:09.877Z,102601.00
2018-12-30T17:54:40.529Z,102597.98
2018-12-30T17:57:11.164Z,102603.16
2018-12-30T17:59:41.681Z,102594.09
2018-12-30T18:02:12.351Z,102598.45
2018-12-30T18:04:42.724Z,102597.10
2018-12-30T18:07:13.150Z,102602.77
2018-12-30T18:09:43.539Z,102602.77
2018-12-30T18:12:14.043Z,102606.28
2018-12-30T18:14:44.551Z,102604.53
2018-12-30T18:17:15.202Z,102599.75
2018-12-30T18:19:45.601Z,102603.72
2018-12-30T18:22:16.061Z,102601.52
2018-12-30T18:24:46.454Z,102607.58
2018-12-30T18:27:17.008Z,102606.28
2018-12-30T18:29:47.378Z,102607.59
2018-12-30T18:32:17.736Z,102599.82
2018-12-30T18:34:48.015Z,102607.17
2018-12-30T18:37:18.408Z,102605.94
2018-12-30T18:39:48.673Z,102611.13
2018-12-30T18:42:19.030Z,102611.11
2018-12-30T18:44:49.604Z,102601.59
2018-12-30T18:47:19.969Z,102599.95
2018-12-30T18:49:50.528Z,102600.77
2018-12-30T18:52:21.043Z,102599.94
2018-12-30T18:54:51.313Z,102603.78
2018-12-30T18:57:21.534Z,102589.05
2018-12-30T18:59:52.167Z,102587.83
2018-12-30T19:02:22.876Z,102586.05
2018-12-30T19:04:53.117Z,102584.77
2018-12-30T19:07:23.513Z,102581.33
2018-12-30T19:09:53.932Z,102580.05
2018-12-30T19:12:24.330Z,102577.05
2018-12-30T19:14:54.656Z,102578.86
2018-12-30T19:17:24.979Z,102584.88
2018-12-30T19:19:55.525Z,102584.47
2018-12-30T19:22:25.836Z,102574.99
2018-12-30T19:24:56.511Z,102570.68
2018-12-30T19:27:27.094Z,102557.32
2018-12-30T19:29:57.426Z,102553.44
2018-12-30T19:32:27.784Z,102560.34
2018-12-30T19:34:58.150Z,102567.75
2018-12-30T19:37:28.521Z,102569.86
2018-12-30T19:39:58.720Z,102568.15
2018-12-30T19:42:29.344Z,102568.16
2018-12-30T19:44:59.750Z,102571.63
2018-12-30T19:47:30.294Z,102560.03
2018-12-30T19:50:00.911Z,102565.67
2018-12-30T19:52:31.275Z,102570.48
2018-12-30T19:55:01.664Z,102576.13
2018-12-30T19:57:32.016Z,102580.01
2018-12-30T20:00:02.942Z,102580.44
2018-12-30T20:02:33.389Z,102581.31
2018-12-30T20:05:03.843Z,102584.38
2018-12-30T20:07:34.177Z,102584.38
2018-12-30T20:10:04.984Z,102592.63
2018-12-30T20:12:35.259Z,102588.73
2018-12-30T20:15:06.047Z,102600.03
2018-12-30T20:17:36.569Z,102590.95
2018-12-30T20:20:08.031Z,102584.44
2018-12-30T20:22:38.324Z,102578.41
2018-12-30T20:25:08.986Z,102580.19
2018-12-30T20:27:39.402Z,102583.23
2018-12-30T20:30:10.165Z,102572.41
2018-12-30T20:32:40.514Z,102574.58
2018-12-30T20:35:11.210Z,102567.68
2018-12-30T20:37:42.117Z,102563.39
2018-12-30T20:40:12.558Z,102563.80
2018-12-30T20:42:42.827Z,102573.34
2018-12-30T20:45:13.443Z,102572.41
2018-12-30T20:47:43.907Z,102574.17
2018-12-30T20:50:14.610Z,102563.43
2018-12-30T20:52:45.173Z,102572.92
2018-12-30T20:55:15.567Z,102567.27
2018-12-30T20:57:45.922Z,102560.80
2018-12-30T21:00:16.364Z,102565.56
2018-12-30T21:02:46.661Z,102566.02
2018-12-30T21:05:17.748Z,102561.68
2018-12-30T21:07:48.178Z,102566.48
2018-12-30T21:10:18.676Z,102571.26
2018-12-30T21:12:49.146Z,102566.91
2018-12-30T21:15:20.153Z,102568.21
2018-12-30T21:17:50.820Z,102567.78
2018-12-30T21:20:21.478Z,102577.28
2018-12-30T21:22:52.330Z,102568.67
2018-12-30T21:25:22.820Z,102563.95
2018-12-30T21:27:53.163Z,102568.30
2018-12-30T21:30:23.574Z,102568.72
2018-12-30T21:32:53.774Z,102568.72
2018-12-30T21:35:24.392Z,102568.72
2018-12-30T21:37:54.717Z,102566.17
2018-12-30T21:40:25.489Z,102567.88
2018-12-30T21:42:55.926Z,102565.71
2018-12-30T21:45:26.446Z,102563.53
2018-12-30T21:47:57.114Z,102561.87
2018-12-30T21:50:27.514Z,102568.77
2018-12-30T21:52:58.017Z,102567.47
2018-12-30T21:55:28.521Z,102568.35
2018-12-30T21:58:00.107Z,102556.27
2018-12-30T22:00:30.533Z,102560.20
2018-12-30T22:03:01.085Z,102561.92
2018-12-30T22:05:31.957Z,102565.34
2018-12-30T22:08:02.642Z,102558.91
2018-12-30T22:10:32.837Z,102560.58
2018-12-30T22:13:03.308Z,102563.21
2018-12-30T22:15:34.511Z,102562.37
2018-12-30T22:18:04.930Z,102557.19
2018-12-30T22:20:35.532Z,102557.61
2018-12-30T22:23:05.899Z,102557.61
2018-12-30T22:25:36.113Z,102566.27
2018-12-30T22:28:06.536Z,102567.56
2018-12-30T22:30:36.816Z,102569.32
2018-12-30T22:33:07.419Z,102579.23
2018-12-30T22:35:38.694Z,102574.92
2018-12-30T22:38:11.135Z,102585.31
2018-12-30T22:40:42.018Z,102584.05
2018-12-30T22:43:12.478Z,102581.88
2018-12-30T22:45:42.868Z,102579.70
2018-12-30T22:48:13.148Z,102582.75
2018-12-30T22:50:43.476Z,102583.64
2018-12-30T22:53:14.195Z,102587.11
2018-12-30T22:55:44.795Z,102582.84
2018-12-30T22:58:15.187Z,102578.91
2018-12-30T23:01:10.354Z,102575.06
2018-12-30T23:03:40.923Z,102579.80
2018-12-30T23:06:12.053Z,102576.32
2018-12-30T23:08:43.994Z,102577.23
2018-12-30T23:11:14.610Z,102585.06
2018-12-30T23:13:45.270Z,102580.30
2018-12-30T23:16:15.800Z,102581.59
2018-12-30T23:18:46.145Z,102585.06
2018-12-30T23:21:16.412Z,102587.25
2018-12-30T23:23:47.182Z,102589.83
2018-12-30T23:26:17.731Z,102582.47
2018-12-30T23:28:48.507Z,102577.70
2018-12-30T23:31:19.379Z,102578.20
2018-12-30T23:33:50.115Z,102580.34
2018-12-30T23:36:20.545Z,102580.80
2018-12-30T23:38:51.295Z,102579.05
2018-12-30T23:41:21.958Z,102574.31
2018-12-30T23:43:59.320Z,102577.36
2018-12-30T23:46:29.688Z,102581.64
2018-12-30T23:49:00.072Z,102579.08
2018-12-30T23:51:30.786Z,102578.24
2018-12-30T23:54:01.755Z,102574.77
2018-12-30T23:56:32.126Z,102580.84
2018-12-30T23:59:02.619Z,102582.98
